Thunder radar more information blitzortung!


Löydät sääaseman tiedot myös:

European Weather Network

Finland Weather Exchange

Weather Underground

AWEKAS



Weather Underground säähistoriasivu

Päivittäin yhteenveto Maaliskuu 19, 2017 Yksiköt:  Metriset    Englantilaiset   Molemmat
« Edellinen Päivä
Seuraava Päivä »
Päivittäin Viikoittain Kuukausittain Vuosittain Mukautettu
  Korkea: Matala: Keskiarvo:
Lämpötila: -17.8 °C -20.8 °C -18.5 °C
Kastepiste: -17.8 °C -22.2 °C -20.8 °C
Kosteus: Humidity % 44 % 74 %
Tuulen nopeus: 0 km/h 0 km/h 0.2 km/h
Tuulenpuuska: 0 km/h - -
Tuuli:- - WNW
Ilmanpaine: 0 hPa 33683.9 hPa -
Sade: 0 mm    
Historical Graphs
 
 
Taulukkotiedot Maaliskuu 19, 2017
Aika Lämpötila Kastepiste Ilmanpaine Tuuli Tuulen nopeus Tuulenpuuska Kosteus Sademäärä (tunneittain)
-17.8 °C -17.8 °C 0 hPa Calm     Humidity % 0 mm
00:15 -18.7 °C -20.6 °C 33683.9 hPa WNW 2.6 km/h 10.3 km/h 78 % 0 mm
00:30 -18.8 °C -20.6 °C 33694.1 hPa WNW 2.6 km/h 10.3 km/h 78 % 0 mm
00:45 -18.9 °C -20.6 °C 33707.6 hPa Calm     80 % 0 mm
01:00 -19 °C -20.6 °C 33707.6 hPa Calm     81 % 0 mm
01:15 -19.1 °C -20.7 °C 33707.6 hPa Calm   5.1 km/h 81 % 0 mm
01:30 -19.2 °C -20.7 °C 33717.8 hPa Calm     81 % 0 mm
01:45 -19.1 °C -20.6 °C 33731.3 hPa Calm   7.7 km/h 82 % 0 mm
02:00 -19.1 °C -20.6 °C 33731.3 hPa Calm   5.1 km/h 82 % 0 mm
02:15 -19.2 °C -20.7 °C 33731.3 hPa Calm     82 % 0 mm
02:30 -19.2 °C -20.6 °C 33741.5 hPa Calm   2.6 km/h 83 % 0 mm
02:45 -19.2 °C -20.5 °C 33741.5 hPa Calm     84 % 0 mm
03:00 -19.2 °C -20.4 °C 33751.6 hPa Calm     85 % 0 mm
03:15 -19.3 °C -20.4 °C 33765.2 hPa Calm   2.6 km/h 85 % 0 mm
03:30 -19.3 °C -20.3 °C 33765.2 hPa Calm   2.6 km/h 87 % 0 mm
03:45 -19.4 °C -20.4 °C 33775.4 hPa Calm     88 % 0 mm
04:00 -19.6 °C -20.5 °C 33788.9 hPa Calm     88 % 0 mm
04:15 -19.6 °C -20.4 °C 33788.9 hPa Calm     89 % 0 mm
04:30 -19.7 °C -20.6 °C 33799.1 hPa Calm     89 % 0 mm
04:45 -19.8 °C -20.6 °C 33809.2 hPa Calm     90 % 0 mm
05:00 -19.9 °C -20.6 °C 33809.2 hPa Calm     91 % 0 mm
05:15 -19.9 °C -20.6 °C 33822.8 hPa Calm     92 % 0 mm
05:30 -19.9 °C -20.7 °C 33832.9 hPa Calm   2.6 km/h 91 % 0 mm
05:45 -20.1 °C -20.8 °C 33843.1 hPa Calm     91 % 0 mm
06:00 -20.2 °C -20.9 °C 33843.1 hPa Calm     91 % 0 mm
06:15 -20.4 °C -21.1 °C 33856.6 hPa Calm     91 % 0 mm
06:30 -20.5 °C -21.1 °C 33856.6 hPa Calm     92 % 0 mm
06:45 -20.7 °C -21.3 °C 33866.8 hPa Calm     92 % 0 mm
07:00 -20.7 °C -21.3 °C 33866.8 hPa Calm     92 % 0 mm
07:15 -20.8 °C -21.3 °C 33880.3 hPa Calm     93 % 0 mm
07:30 -20.8 °C -21.3 °C 33890.5 hPa Calm     93 % 0 mm
07:45 -20.7 °C -21.1 °C 33890.5 hPa Calm     94 % 0 mm
08:00 -20.5 °C -20.9 °C 33900.6 hPa Calm     94 % 0 mm
08:15 -20.3 °C -20.7 °C 33900.6 hPa Calm     94 % 0 mm
08:30 -20.1 °C -20.6 °C 33914.2 hPa Calm     94 % 0 mm
08:45 -19.9 °C -20.4 °C 33914.2 hPa Calm     94 % 0 mm
09:00 -19.8 °C -20.4 °C 33914.2 hPa Calm     93 % 0 mm
09:15 -19.7 °C -20.2 °C 33914.2 hPa Calm     93 % 0 mm
09:30 -19.5 °C -20.1 °C 33924.3 hPa Calm   2.6 km/h 92 % 0 mm
09:45 -19.3 °C -20.1 °C 33924.3 hPa Calm     90 % 0 mm
10:00 -18.9 °C -19.9 °C 33937.9 hPa Calm   2.6 km/h 87 % 0 mm
10:15 -18.4 °C -19.8 °C 33937.9 hPa Calm   2.6 km/h 83 % 0 mm
10:30 -18.2 °C -19.8 °C 33937.9 hPa Calm     80 % 0 mm
10:45 -17.9 °C -20 °C 33937.9 hPa Calm   2.6 km/h 76 % 0 mm
11:00 -17.7 °C -20 °C 33937.9 hPa Calm   2.6 km/h 74 % 0 mm
11:15 -17.6 °C -20.2 °C 33937.9 hPa Calm   2.6 km/h 70 % 0 mm
11:30 -17.3 °C -20.1 °C 33937.9 hPa Calm   2.6 km/h 69 % 0 mm
11:45 -17.2 °C -20.3 °C 33937.9 hPa Calm   2.6 km/h 66 % 0 mm
12:00 -17 °C -20 °C 33937.9 hPa Calm   2.6 km/h 67 % 0 mm
12:15 -16.8 °C -20.1 °C 33937.9 hPa Calm   5.1 km/h 65 % 0 mm
12:30 -16.8 °C -20.4 °C 33937.9 hPa Calm   5.1 km/h 62 % 0 mm
12:45 -16.7 °C -20.6 °C 33937.9 hPa Calm   2.6 km/h 60 % 0 mm
13:30 -16.2 °C -20.6 °C 33937.9 hPa Calm   5.1 km/h 56 % 0 mm
13:45 -16.2 °C -20.7 °C 33937.9 hPa Calm   2.6 km/h 55 % 0 mm
14:00 -16.3 °C -21.2 °C 33937.9 hPa Calm   5.1 km/h 52 % 0 mm
14:15 -16.1 °C -21.5 °C 33937.9 hPa Calm   7.7 km/h 49 % 0 mm
14:30 -16 °C -20.6 °C 33937.9 hPa Calm   5.1 km/h 55 % 0 mm
14:45 -15.7 °C -21.2 °C 33937.9 hPa Calm   2.6 km/h 48 % 0 mm
15:00 -15.9 °C -21.3 °C 33937.9 hPa Calm   5.1 km/h 49 % 0 mm
15:15 -15.6 °C -21 °C 33937.9 hPa Calm   2.6 km/h 49 % 0 mm
15:30 -15.6 °C -21.3 °C 33924.3 hPa Calm     47 % 0 mm
15:45 -15.8 °C -21.1 °C 33937.9 hPa Calm   2.6 km/h 50 % 0 mm
16:00 -15.4 °C -21.2 °C 33924.3 hPa Calm     47 % 0 mm
16:15 -15.3 °C -21.6 °C 33924.3 hPa Calm   2.6 km/h 44 % 0 mm
16:30 -15.7 °C -21.6 °C 33924.3 hPa Calm     46 % 0 mm
16:45 -16.1 °C -21.6 °C 33924.3 hPa Calm   2.6 km/h 48 % 0 mm
17:00 -16.3 °C -21.9 °C 33937.9 hPa Calm     47 % 0 mm
17:15 -16.4 °C -22.2 °C 33924.3 hPa Calm     46 % 0 mm
17:30 -16.6 °C -22.2 °C 33924.3 hPa Calm     47 % 0 mm
17:45 -16.8 °C -21.8 °C 33924.3 hPa Calm     51 % 0 mm
18:00 -17 °C -22.2 °C 33924.3 hPa Calm     50 % 0 mm
18:15 -17.2 °C -21.4 °C 33924.3 hPa Calm     57 % 0 mm
18:30 -17.6 °C -21.4 °C 33924.3 hPa Calm     60 % 0 mm
18:45 -18.1 °C -20.8 °C 33924.3 hPa Calm     70 % 0 mm
19:00 -18.5 °C -21.3 °C 33924.3 hPa Calm     69 % 0 mm
19:15 -18.8 °C -21.6 °C 33924.3 hPa Calm     69 % 0 mm
19:30 -19 °C -21.3 °C 33924.3 hPa Calm     73 % 0 mm
20:00 -19.3 °C -21.7 °C 33924.3 hPa Calm     72 % 0 mm
20:15 -19.3 °C -21.6 °C 33937.9 hPa Calm     74 % 0 mm
20:30 -19.4 °C -21.7 °C 33924.3 hPa Calm     74 % 0 mm
20:45 -19.6 °C -21.6 °C 33924.3 hPa Calm     76 % 0 mm
21:00 -19.6 °C -21.7 °C 33924.3 hPa Calm     76 % 0 mm
21:15 -19.7 °C -21.7 °C 33924.3 hPa Calm     76 % 0 mm
21:30 -19.7 °C -21.7 °C 33924.3 hPa NW 2.6 km/h 7.7 km/h 76 % 0 mm
21:45 -19.6 °C -21.4 °C 33924.3 hPa Calm     78 % 0 mm
22:00 -19.4 °C -21.1 °C 33924.3 hPa Calm     80 % 0 mm
22:15 -19.3 °C -21 °C 33924.3 hPa Calm   5.1 km/h 80 % 0 mm
22:30 -19.3 °C -21 °C 33924.3 hPa Calm     80 % 0 mm
22:45 -19.3 °C -20.8 °C 33924.3 hPa WNW 2.6 km/h 10.3 km/h 82 % 0 mm
23:00 -19.3 °C -20.8 °C 33924.3 hPa Calm     82 % 0 mm
23:15 -19.3 °C -20.8 °C 33914.2 hPa Calm   2.6 km/h 82 % 0 mm
23:30 -19.4 °C -20.8 °C 33924.3 hPa Calm     83 % 0 mm
23:45 -19.4 °C -20.8 °C 33914.2 hPa Calm     83 % 0 mm
Esan sääasema
Terveisin Weather Underground - 2.75 mb

Alkuperäinen skripti  Jim McMurry - jmcmurry@mwt.net Sovitettu myös templatelle  Wim van der Kuil - Leuven-Template.eu

Laitteet joita käytämme:

Sääasema
Davis VP2

Sääasemaohjelma
Cumulus

Sääaseman tietokone
Asus EeePC

Palveluntarjoaja
Suncomet

Davis VP2

Cumulus

Asus EeePC

Suncomet